sensor_id;sensor_type;location;lat;lon;timestamp;P1;durP1;ratioP1;P2;durP2;ratioP2
18308;SDS011;9280;50.276;18.650;2022-07-05T00:02:10;8.03;;;5.17;;
18308;SDS011;9280;50.276;18.650;2022-07-05T00:04:56;5.97;;;4.50;;
18308;SDS011;9280;50.276;18.650;2022-07-05T00:07:41;7.27;;;5.77;;
18308;SDS011;9280;50.276;18.650;2022-07-05T00:10:27;7.50;;;6.40;;
18308;SDS011;9280;50.276;18.650;2022-07-05T00:13:14;5.17;;;4.60;;
18308;SDS011;9280;50.276;18.650;2022-07-05T00:16:01;7.70;;;4.90;;
18308;SDS011;9280;50.276;18.650;2022-07-05T00:18:47;5.97;;;4.37;;
18308;SDS011;9280;50.276;18.650;2022-07-05T00:21:33;5.53;;;4.77;;
18308;SDS011;9280;50.276;18.650;2022-07-05T00:24:19;8.23;;;4.83;;
18308;SDS011;9280;50.276;18.650;2022-07-05T00:27:05;7.27;;;4.70;;
18308;SDS011;9280;50.276;18.650;2022-07-05T00:29:51;6.07;;;3.80;;
18308;SDS011;9280;50.276;18.650;2022-07-05T00:32:38;8.87;;;4.60;;
18308;SDS011;9280;50.276;18.650;2022-07-05T00:35:25;6.33;;;4.17;;
18308;SDS011;9280;50.276;18.650;2022-07-05T00:38:11;6.37;;;4.03;;
18308;SDS011;9280;50.276;18.650;2022-07-05T00:40:57;4.20;;;3.83;;
18308;SDS011;9280;50.276;18.650;2022-07-05T00:43:50;11.80;;;5.40;;
18308;SDS011;9280;50.276;18.650;2022-07-05T00:46:38;6.43;;;5.33;;
18308;SDS011;9280;50.276;18.650;2022-07-05T00:49:25;6.47;;;4.80;;
18308;SDS011;9280;50.276;18.650;2022-07-05T00:52:11;5.07;;;4.60;;
18308;SDS011;9280;50.276;18.650;2022-07-05T00:54:58;5.67;;;4.23;;
18308;SDS011;9280;50.276;18.650;2022-07-05T00:57:44;4.53;;;3.97;;
18308;SDS011;9280;50.276;18.650;2022-07-05T01:00:30;4.93;;;4.43;;
18308;SDS011;9280;50.276;18.650;2022-07-05T01:03:16;5.67;;;4.13;;
18308;SDS011;9280;50.276;18.650;2022-07-05T01:06:05;7.73;;;4.03;;
18308;SDS011;9280;50.276;18.650;2022-07-05T01:08:52;4.00;;;3.70;;
18308;SDS011;9280;50.276;18.650;2022-07-05T01:11:39;5.30;;;4.33;;
18308;SDS011;9280;50.276;18.650;2022-07-05T01:14:25;6.90;;;4.20;;
18308;SDS011;9280;50.276;18.650;2022-07-05T01:17:11;5.10;;;4.70;;
18308;SDS011;9280;50.276;18.650;2022-07-05T01:19:57;7.77;;;4.97;;
18308;SDS011;9280;50.276;18.650;2022-07-05T01:22:51;6.93;;;4.87;;
18308;SDS011;9280;50.276;18.650;2022-07-05T01:25:38;5.73;;;4.80;;
18308;SDS011;9280;50.276;18.650;2022-07-05T01:28:25;11.03;;;5.03;;
18308;SDS011;9280;50.276;18.650;2022-07-05T01:31:11;12.90;;;5.60;;
18308;SDS011;9280;50.276;18.650;2022-07-05T01:33:57;6.10;;;5.50;;
18308;SDS011;9280;50.276;18.650;2022-07-05T01:36:44;7.30;;;5.67;;
18308;SDS011;9280;50.276;18.650;2022-07-05T01:39:31;7.63;;;5.97;;
18308;SDS011;9280;50.276;18.650;2022-07-05T01:42:17;7.20;;;5.90;;
18308;SDS011;9280;50.276;18.650;2022-07-05T01:45:04;6.43;;;5.83;;
18308;SDS011;9280;50.276;18.650;2022-07-05T01:47:50;9.03;;;6.00;;
18308;SDS011;9280;50.276;18.650;2022-07-05T01:50:38;7.50;;;5.87;;
18308;SDS011;9280;50.276;18.650;2022-07-05T01:53:27;5.77;;;5.27;;
18308;SDS011;9280;50.276;18.650;2022-07-05T01:56:15;8.73;;;6.47;;
18308;SDS011;9280;50.276;18.650;2022-07-05T01:59:01;9.60;;;6.67;;
18308;SDS011;9280;50.276;18.650;2022-07-05T02:01:47;7.90;;;6.57;;
18308;SDS011;9280;50.276;18.650;2022-07-05T02:04:34;9.57;;;6.67;;
18308;SDS011;9280;50.276;18.650;2022-07-05T02:07:24;15.93;;;8.47;;
18308;SDS011;9280;50.276;18.650;2022-07-05T02:10:10;12.80;;;8.20;;
18308;SDS011;9280;50.276;18.650;2022-07-05T02:12:57;9.43;;;8.13;;
18308;SDS011;9280;50.276;18.650;2022-07-05T02:15:43;15.10;;;8.80;;
18308;SDS011;9280;50.276;18.650;2022-07-05T02:18:29;10.17;;;8.53;;
18308;SDS011;9280;50.276;18.650;2022-07-05T02:21:15;12.57;;;8.50;;
18308;SDS011;9280;50.276;18.650;2022-07-05T02:24:03;26.07;;;8.60;;
18308;SDS011;9280;50.276;18.650;2022-07-05T02:26:55;19.63;;;8.60;;
18308;SDS011;9280;50.276;18.650;2022-07-05T02:29:43;9.93;;;8.87;;
18308;SDS011;9280;50.276;18.650;2022-07-05T02:32:30;13.90;;;9.77;;
18308;SDS011;9280;50.276;18.650;2022-07-05T02:35:18;13.53;;;8.97;;
18308;SDS011;9280;50.276;18.650;2022-07-05T02:38:04;13.00;;;9.13;;
18308;SDS011;9280;50.276;18.650;2022-07-05T02:40:50;9.63;;;7.77;;
18308;SDS011;9280;50.276;18.650;2022-07-05T02:43:37;23.23;;;9.57;;
18308;SDS011;9280;50.276;18.650;2022-07-05T02:46:27;16.67;;;9.07;;
18308;SDS011;9280;50.276;18.650;2022-07-05T02:49:17;10.63;;;8.53;;
18308;SDS011;9280;50.276;18.650;2022-07-05T02:52:04;14.90;;;8.60;;
18308;SDS011;9280;50.276;18.650;2022-07-05T02:54:50;20.40;;;9.30;;
18308;SDS011;9280;50.276;18.650;2022-07-05T02:57:37;17.80;;;8.67;;
18308;SDS011;9280;50.276;18.650;2022-07-05T03:00:26;15.53;;;9.30;;
18308;SDS011;9280;50.276;18.650;2022-07-05T03:03:13;13.43;;;8.63;;
18308;SDS011;9280;50.276;18.650;2022-07-05T03:06:00;15.33;;;9.27;;
18308;SDS011;9280;50.276;18.650;2022-07-05T03:08:48;18.10;;;8.97;;
18308;SDS011;9280;50.276;18.650;2022-07-05T03:11:34;15.90;;;9.07;;
18308;SDS011;9280;50.276;18.650;2022-07-05T03:14:21;16.27;;;9.97;;
18308;SDS011;9280;50.276;18.650;2022-07-05T03:17:08;14.23;;;8.07;;
18308;SDS011;9280;50.276;18.650;2022-07-05T03:19:56;11.20;;;7.83;;
18308;SDS011;9280;50.276;18.650;2022-07-05T03:22:44;15.57;;;8.70;;
18308;SDS011;9280;50.276;18.650;2022-07-05T03:25:31;18.77;;;10.90;;
18308;SDS011;9280;50.276;18.650;2022-07-05T03:28:20;11.50;;;9.93;;
18308;SDS011;9280;50.276;18.650;2022-07-05T03:31:09;15.77;;;9.60;;
18308;SDS011;9280;50.276;18.650;2022-07-05T03:33:58;17.20;;;10.97;;
18308;SDS011;9280;50.276;18.650;2022-07-05T03:36:46;19.40;;;11.90;;
18308;SDS011;9280;50.276;18.650;2022-07-05T03:39:35;14.40;;;11.23;;
18308;SDS011;9280;50.276;18.650;2022-07-05T03:42:22;16.17;;;11.47;;
18308;SDS011;9280;50.276;18.650;2022-07-05T03:45:09;12.23;;;10.43;;
18308;SDS011;9280;50.276;18.650;2022-07-05T03:47:57;22.20;;;11.33;;
18308;SDS011;9280;50.276;18.650;2022-07-05T03:50:43;13.73;;;10.43;;
18308;SDS011;9280;50.276;18.650;2022-07-05T03:53:31;12.27;;;10.30;;
18308;SDS011;9280;50.276;18.650;2022-07-05T03:56:19;19.30;;;10.70;;
18308;SDS011;9280;50.276;18.650;2022-07-05T03:59:09;12.47;;;11.17;;
18308;SDS011;9280;50.276;18.650;2022-07-05T04:01:55;18.37;;;11.17;;
18308;SDS011;9280;50.276;18.650;2022-07-05T04:04:41;14.23;;;11.90;;
18308;SDS011;9280;50.276;18.650;2022-07-05T04:07:27;15.83;;;11.20;;
18308;SDS011;9280;50.276;18.650;2022-07-05T04:10:14;19.27;;;12.27;;
18308;SDS011;9280;50.276;18.650;2022-07-05T04:13:01;16.37;;;11.50;;
18308;SDS011;9280;50.276;18.650;2022-07-05T04:15:48;17.60;;;12.20;;
18308;SDS011;9280;50.276;18.650;2022-07-05T04:18:34;17.00;;;11.80;;
18308;SDS011;9280;50.276;18.650;2022-07-05T04:21:21;15.57;;;12.70;;
18308;SDS011;9280;50.276;18.650;2022-07-05T04:24:07;14.47;;;12.23;;
18308;SDS011;9280;50.276;18.650;2022-07-05T04:26:56;16.23;;;12.53;;
18308;SDS011;9280;50.276;18.650;2022-07-05T04:29:44;14.60;;;11.90;;
18308;SDS011;9280;50.276;18.650;2022-07-05T04:32:30;18.87;;;12.97;;
18308;SDS011;9280;50.276;18.650;2022-07-05T04:35:16;18.03;;;15.20;;
18308;SDS011;9280;50.276;18.650;2022-07-05T04:38:04;16.90;;;11.87;;
18308;SDS011;9280;50.276;18.650;2022-07-05T04:40:53;21.57;;;11.50;;
18308;SDS011;9280;50.276;18.650;2022-07-05T04:43:42;15.30;;;12.17;;
18308;SDS011;9280;50.276;18.650;2022-07-05T04:46:30;24.20;;;11.80;;
18308;SDS011;9280;50.276;18.650;2022-07-05T04:49:16;17.93;;;13.27;;
18308;SDS011;9280;50.276;18.650;2022-07-05T04:52:03;20.43;;;12.50;;
18308;SDS011;9280;50.276;18.650;2022-07-05T04:54:51;20.00;;;13.10;;
18308;SDS011;9280;50.276;18.650;2022-07-05T04:57:37;17.53;;;13.30;;
18308;SDS011;9280;50.276;18.650;2022-07-05T05:00:25;19.10;;;13.47;;
18308;SDS011;9280;50.276;18.650;2022-07-05T05:03:11;23.00;;;13.03;;
18308;SDS011;9280;50.276;18.650;2022-07-05T05:05:57;15.20;;;12.67;;
18308;SDS011;9280;50.276;18.650;2022-07-05T05:08:43;19.10;;;11.83;;
18308;SDS011;9280;50.276;18.650;2022-07-05T05:11:29;20.53;;;12.10;;
18308;SDS011;9280;50.276;18.650;2022-07-05T05:14:15;12.63;;;11.30;;
18308;SDS011;9280;50.276;18.650;2022-07-05T05:17:02;17.13;;;12.80;;
18308;SDS011;9280;50.276;18.650;2022-07-05T05:19:48;21.73;;;15.23;;
18308;SDS011;9280;50.276;18.650;2022-07-05T05:22:34;21.03;;;15.73;;
18308;SDS011;9280;50.276;18.650;2022-07-05T05:25:20;21.40;;;14.27;;
18308;SDS011;9280;50.276;18.650;2022-07-05T05:28:06;20.00;;;15.03;;
18308;SDS011;9280;50.276;18.650;2022-07-05T05:30:52;18.53;;;15.63;;
18308;SDS011;9280;50.276;18.650;2022-07-05T05:33:39;19.10;;;14.40;;
18308;SDS011;9280;50.276;18.650;2022-07-05T05:36:25;20.33;;;14.73;;
18308;SDS011;9280;50.276;18.650;2022-07-05T05:39:12;18.00;;;15.20;;
18308;SDS011;9280;50.276;18.650;2022-07-05T05:41:58;24.40;;;15.77;;
18308;SDS011;9280;50.276;18.650;2022-07-05T05:44:44;20.43;;;15.90;;
18308;SDS011;9280;50.276;18.650;2022-07-05T05:47:30;20.90;;;16.23;;
18308;SDS011;9280;50.276;18.650;2022-07-05T05:50:20;17.97;;;16.03;;
18308;SDS011;9280;50.276;18.650;2022-07-05T05:53:07;22.93;;;15.93;;
18308;SDS011;9280;50.276;18.650;2022-07-05T05:55:54;24.13;;;16.77;;
18308;SDS011;9280;50.276;18.650;2022-07-05T05:58:40;22.80;;;15.93;;
18308;SDS011;9280;50.276;18.650;2022-07-05T06:01:26;21.97;;;16.50;;
18308;SDS011;9280;50.276;18.650;2022-07-05T06:04:12;21.10;;;15.33;;
18308;SDS011;9280;50.276;18.650;2022-07-05T06:06:59;23.17;;;15.70;;
18308;SDS011;9280;50.276;18.650;2022-07-05T06:09:45;22.80;;;15.13;;
18308;SDS011;9280;50.276;18.650;2022-07-05T06:12:31;22.80;;;16.73;;
18308;SDS011;9280;50.276;18.650;2022-07-05T06:15:17;26.43;;;16.27;;
18308;SDS011;9280;50.276;18.650;2022-07-05T06:18:04;21.03;;;15.90;;
18308;SDS011;9280;50.276;18.650;2022-07-05T06:20:50;23.10;;;16.33;;
18308;SDS011;9280;50.276;18.650;2022-07-05T06:23:37;24.73;;;16.37;;
18308;SDS011;9280;50.276;18.650;2022-07-05T06:26:24;23.90;;;16.83;;
18308;SDS011;9280;50.276;18.650;2022-07-05T06:29:10;23.93;;;16.57;;
18308;SDS011;9280;50.276;18.650;2022-07-05T06:31:56;25.10;;;17.30;;
18308;SDS011;9280;50.276;18.650;2022-07-05T06:34:43;22.90;;;17.37;;
18308;SDS011;9280;50.276;18.650;2022-07-05T06:37:39;23.87;;;17.50;;
18308;SDS011;9280;50.276;18.650;2022-07-05T06:40:29;22.90;;;16.63;;
18308;SDS011;9280;50.276;18.650;2022-07-05T06:43:16;23.37;;;17.77;;
18308;SDS011;9280;50.276;18.650;2022-07-05T06:46:12;28.23;;;18.50;;
18308;SDS011;9280;50.276;18.650;2022-07-05T06:48:58;22.17;;;16.93;;
18308;SDS011;9280;50.276;18.650;2022-07-05T06:51:44;24.93;;;17.67;;
18308;SDS011;9280;50.276;18.650;2022-07-05T06:54:30;25.87;;;16.83;;
18308;SDS011;9280;50.276;18.650;2022-07-05T06:57:19;21.07;;;16.37;;
18308;SDS011;9280;50.276;18.650;2022-07-05T07:00:05;25.00;;;16.60;;
18308;SDS011;9280;50.276;18.650;2022-07-05T07:02:55;18.93;;;14.30;;
18308;SDS011;9280;50.276;18.650;2022-07-05T07:05:41;18.60;;;15.97;;
18308;SDS011;9280;50.276;18.650;2022-07-05T07:08:27;20.10;;;14.00;;
18308;SDS011;9280;50.276;18.650;2022-07-05T07:11:45;23.20;;;13.80;;
18308;SDS011;9280;50.276;18.650;2022-07-05T07:14:32;23.70;;;15.37;;
18308;SDS011;9280;50.276;18.650;2022-07-05T07:17:18;23.23;;;15.27;;
18308;SDS011;9280;50.276;18.650;2022-07-05T07:20:04;20.13;;;14.27;;
18308;SDS011;9280;50.276;18.650;2022-07-05T07:22:51;22.73;;;15.33;;
18308;SDS011;9280;50.276;18.650;2022-07-05T07:25:37;25.33;;;16.00;;
18308;SDS011;9280;50.276;18.650;2022-07-05T07:28:24;22.63;;;15.33;;
18308;SDS011;9280;50.276;18.650;2022-07-05T07:31:11;23.90;;;15.43;;
18308;SDS011;9280;50.276;18.650;2022-07-05T07:33:57;24.13;;;16.63;;
18308;SDS011;9280;50.276;18.650;2022-07-05T07:36:46;24.87;;;16.50;;
18308;SDS011;9280;50.276;18.650;2022-07-05T07:39:32;22.23;;;16.93;;
18308;SDS011;9280;50.276;18.650;2022-07-05T07:42:18;22.70;;;17.93;;
18308;SDS011;9280;50.276;18.650;2022-07-05T07:45:05;28.17;;;17.27;;
18308;SDS011;9280;50.276;18.650;2022-07-05T07:47:53;26.10;;;18.70;;
18308;SDS011;9280;50.276;18.650;2022-07-05T07:50:39;23.20;;;17.37;;
18308;SDS011;9280;50.276;18.650;2022-07-05T07:53:25;27.07;;;19.23;;
18308;SDS011;9280;50.276;18.650;2022-07-05T07:56:11;28.20;;;18.80;;
18308;SDS011;9280;50.276;18.650;2022-07-05T07:59:00;28.67;;;19.30;;
18308;SDS011;9280;50.276;18.650;2022-07-05T08:01:46;28.00;;;19.53;;
18308;SDS011;9280;50.276;18.650;2022-07-05T08:04:34;28.43;;;19.70;;
18308;SDS011;9280;50.276;18.650;2022-07-05T08:07:20;24.73;;;17.47;;
18308;SDS011;9280;50.276;18.650;2022-07-05T08:10:07;24.33;;;18.67;;
18308;SDS011;9280;50.276;18.650;2022-07-05T08:12:53;26.37;;;18.83;;
18308;SDS011;9280;50.276;18.650;2022-07-05T08:15:39;20.30;;;16.73;;
18308;SDS011;9280;50.276;18.650;2022-07-05T08:18:25;27.80;;;18.27;;
18308;SDS011;9280;50.276;18.650;2022-07-05T08:21:30;33.70;;;19.23;;
18308;SDS011;9280;50.276;18.650;2022-07-05T08:24:16;28.93;;;19.50;;
18308;SDS011;9280;50.276;18.650;2022-07-05T08:27:02;30.83;;;19.40;;
18308;SDS011;9280;50.276;18.650;2022-07-05T08:29:48;20.60;;;17.63;;
18308;SDS011;9280;50.276;18.650;2022-07-05T08:32:35;28.57;;;17.93;;
18308;SDS011;9280;50.276;18.650;2022-07-05T08:35:21;23.43;;;17.90;;
18308;SDS011;9280;50.276;18.650;2022-07-05T08:38:09;39.50;;;18.60;;
18308;SDS011;9280;50.276;18.650;2022-07-05T08:40:56;26.67;;;16.83;;
18308;SDS011;9280;50.276;18.650;2022-07-05T08:43:46;24.77;;;17.30;;
18308;SDS011;9280;50.276;18.650;2022-07-05T08:46:36;28.73;;;18.10;;
18308;SDS011;9280;50.276;18.650;2022-07-05T08:49:24;27.20;;;17.23;;
18308;SDS011;9280;50.276;18.650;2022-07-05T08:52:11;28.13;;;17.70;;
18308;SDS011;9280;50.276;18.650;2022-07-05T08:54:59;22.53;;;17.33;;
18308;SDS011;9280;50.276;18.650;2022-07-05T08:57:46;25.97;;;17.93;;
18308;SDS011;9280;50.276;18.650;2022-07-05T09:00:32;26.50;;;18.13;;
18308;SDS011;9280;50.276;18.650;2022-07-05T09:03:18;20.77;;;16.23;;
18308;SDS011;9280;50.276;18.650;2022-07-05T09:06:11;23.27;;;16.07;;
18308;SDS011;9280;50.276;18.650;2022-07-05T09:08:59;21.10;;;15.43;;
18308;SDS011;9280;50.276;18.650;2022-07-05T09:11:47;18.90;;;15.57;;
18308;SDS011;9280;50.276;18.650;2022-07-05T09:14:33;24.23;;;16.17;;
18308;SDS011;9280;50.276;18.650;2022-07-05T09:17:19;30.53;;;17.17;;
18308;SDS011;9280;50.276;18.650;2022-07-05T09:20:06;19.77;;;16.03;;
18308;SDS011;9280;50.276;18.650;2022-07-05T09:22:54;23.20;;;16.37;;
18308;SDS011;9280;50.276;18.650;2022-07-05T09:25:41;17.57;;;15.57;;
18308;SDS011;9280;50.276;18.650;2022-07-05T09:28:28;25.13;;;15.20;;
18308;SDS011;9280;50.276;18.650;2022-07-05T09:31:17;20.13;;;15.97;;
18308;SDS011;9280;50.276;18.650;2022-07-05T09:34:11;29.67;;;15.07;;
18308;SDS011;9280;50.276;18.650;2022-07-05T09:36:59;17.40;;;13.73;;
18308;SDS011;9280;50.276;18.650;2022-07-05T09:39:46;19.27;;;13.87;;
18308;SDS011;9280;50.276;18.650;2022-07-05T09:42:33;23.47;;;14.10;;
18308;SDS011;9280;50.276;18.650;2022-07-05T09:45:23;18.87;;;13.27;;
18308;SDS011;9280;50.276;18.650;2022-07-05T09:48:09;21.87;;;12.70;;
18308;SDS011;9280;50.276;18.650;2022-07-05T09:51:06;18.67;;;11.53;;
18308;SDS011;9280;50.276;18.650;2022-07-05T09:53:57;15.53;;;12.10;;
18308;SDS011;9280;50.276;18.650;2022-07-05T09:56:44;16.27;;;11.73;;
18308;SDS011;9280;50.276;18.650;2022-07-05T09:59:31;16.40;;;12.90;;
18308;SDS011;9280;50.276;18.650;2022-07-05T10:02:22;16.90;;;12.33;;
18308;SDS011;9280;50.276;18.650;2022-07-05T10:05:19;17.37;;;13.13;;
18308;SDS011;9280;50.276;18.650;2022-07-05T10:08:06;19.93;;;14.80;;
18308;SDS011;9280;50.276;18.650;2022-07-05T10:10:52;27.73;;;21.47;;
18308;SDS011;9280;50.276;18.650;2022-07-05T10:13:38;23.70;;;19.63;;
18308;SDS011;9280;50.276;18.650;2022-07-05T10:16:26;26.50;;;20.13;;
18308;SDS011;9280;50.276;18.650;2022-07-05T10:19:15;28.00;;;21.03;;
18308;SDS011;9280;50.276;18.650;2022-07-05T10:22:03;33.00;;;22.30;;
18308;SDS011;9280;50.276;18.650;2022-07-05T10:24:51;28.77;;;21.93;;
18308;SDS011;9280;50.276;18.650;2022-07-05T10:27:38;23.20;;;20.07;;
18308;SDS011;9280;50.276;18.650;2022-07-05T10:30:25;25.73;;;19.47;;
18308;SDS011;9280;50.276;18.650;2022-07-05T10:33:11;26.10;;;18.97;;
18308;SDS011;9280;50.276;18.650;2022-07-05T10:36:00;24.00;;;19.57;;
18308;SDS011;9280;50.276;18.650;2022-07-05T10:38:47;25.70;;;21.17;;
18308;SDS011;9280;50.276;18.650;2022-07-05T10:41:34;30.73;;;22.77;;
18308;SDS011;9280;50.276;18.650;2022-07-05T10:44:26;30.27;;;23.30;;
18308;SDS011;9280;50.276;18.650;2022-07-05T10:47:15;28.67;;;24.10;;
18308;SDS011;9280;50.276;18.650;2022-07-05T10:50:03;32.50;;;22.63;;
18308;SDS011;9280;50.276;18.650;2022-07-05T10:53:02;28.63;;;23.37;;
18308;SDS011;9280;50.276;18.650;2022-07-05T10:55:49;29.90;;;24.37;;
18308;SDS011;9280;50.276;18.650;2022-07-05T10:58:40;33.37;;;23.17;;
18308;SDS011;9280;50.276;18.650;2022-07-05T11:01:33;31.67;;;24.80;;
18308;SDS011;9280;50.276;18.650;2022-07-05T11:04:25;32.73;;;25.53;;
18308;SDS011;9280;50.276;18.650;2022-07-05T11:07:23;33.53;;;26.10;;
18308;SDS011;9280;50.276;18.650;2022-07-05T11:13:56;33.00;;;25.57;;
18308;SDS011;9280;50.276;18.650;2022-07-05T11:16:44;31.90;;;25.33;;
18308;SDS011;9280;50.276;18.650;2022-07-05T11:19:30;33.07;;;25.27;;
18308;SDS011;9280;50.276;18.650;2022-07-05T11:22:16;34.03;;;25.43;;
18308;SDS011;9280;50.276;18.650;2022-07-05T11:25:04;29.00;;;24.23;;
18308;SDS011;9280;50.276;18.650;2022-07-05T11:31:03;34.03;;;24.10;;
18308;SDS011;9280;50.276;18.650;2022-07-05T11:33:49;35.23;;;27.50;;
18308;SDS011;9280;50.276;18.650;2022-07-05T11:36:38;36.53;;;26.63;;
18308;SDS011;9280;50.276;18.650;2022-07-05T11:39:24;37.60;;;28.47;;
18308;SDS011;9280;50.276;18.650;2022-07-05T11:42:10;35.13;;;23.70;;
18308;SDS011;9280;50.276;18.650;2022-07-05T11:45:06;37.37;;;27.17;;
18308;SDS011;9280;50.276;18.650;2022-07-05T11:47:53;33.50;;;26.40;;
18308;SDS011;9280;50.276;18.650;2022-07-05T11:50:41;40.00;;;28.60;;
18308;SDS011;9280;50.276;18.650;2022-07-05T11:53:30;42.37;;;28.07;;
18308;SDS011;9280;50.276;18.650;2022-07-05T11:56:16;38.07;;;29.40;;
18308;SDS011;9280;50.276;18.650;2022-07-05T11:59:16;41.03;;;29.63;;
18308;SDS011;9280;50.276;18.650;2022-07-05T12:02:04;42.70;;;29.73;;
18308;SDS011;9280;50.276;18.650;2022-07-05T12:04:50;41.43;;;29.23;;
18308;SDS011;9280;50.276;18.650;2022-07-05T12:07:37;41.03;;;31.70;;
18308;SDS011;9280;50.276;18.650;2022-07-05T12:10:24;37.43;;;28.00;;
18308;SDS011;9280;50.276;18.650;2022-07-05T12:13:27;37.83;;;28.13;;
18308;SDS011;9280;50.276;18.650;2022-07-05T12:16:14;39.50;;;26.97;;
18308;SDS011;9280;50.276;18.650;2022-07-05T12:19:01;30.50;;;23.53;;
18308;SDS011;9280;50.276;18.650;2022-07-05T12:21:51;33.23;;;23.67;;
18308;SDS011;9280;50.276;18.650;2022-07-05T12:24:38;33.30;;;25.90;;
18308;SDS011;9280;50.276;18.650;2022-07-05T12:27:24;32.67;;;26.63;;
18308;SDS011;9280;50.276;18.650;2022-07-05T12:30:14;34.90;;;27.20;;
18308;SDS011;9280;50.276;18.650;2022-07-05T12:33:02;34.07;;;25.33;;
18308;SDS011;9280;50.276;18.650;2022-07-05T12:35:51;36.47;;;26.60;;
18308;SDS011;9280;50.276;18.650;2022-07-05T12:38:36;39.43;;;30.23;;
18308;SDS011;9280;50.276;18.650;2022-07-05T12:41:22;35.63;;;25.50;;
18308;SDS011;9280;50.276;18.650;2022-07-05T12:44:08;27.93;;;18.80;;
18308;SDS011;9280;50.276;18.650;2022-07-05T12:47:02;17.60;;;14.20;;
18308;SDS011;9280;50.276;18.650;2022-07-05T12:49:52;19.30;;;13.37;;
18308;SDS011;9280;50.276;18.650;2022-07-05T12:55:35;18.13;;;12.90;;
18308;SDS011;9280;50.276;18.650;2022-07-05T12:58:45;17.67;;;14.50;;
18308;SDS011;9280;50.276;18.650;2022-07-05T13:01:36;20.03;;;14.83;;
18308;SDS011;9280;50.276;18.650;2022-07-05T13:04:24;21.10;;;15.07;;
18308;SDS011;9280;50.276;18.650;2022-07-05T13:07:09;19.60;;;16.30;;
18308;SDS011;9280;50.276;18.650;2022-07-05T13:10:13;21.80;;;17.70;;
18308;SDS011;9280;50.276;18.650;2022-07-05T13:13:01;22.40;;;16.30;;
18308;SDS011;9280;50.276;18.650;2022-07-05T13:15:47;23.50;;;17.50;;
18308;SDS011;9280;50.276;18.650;2022-07-05T13:18:33;22.23;;;17.70;;
18308;SDS011;9280;50.276;18.650;2022-07-05T13:21:19;25.30;;;17.27;;
18308;SDS011;9280;50.276;18.650;2022-07-05T13:24:06;23.50;;;18.47;;
18308;SDS011;9280;50.276;18.650;2022-07-05T13:26:52;23.73;;;17.87;;
18308;SDS011;9280;50.276;18.650;2022-07-05T13:29:40;27.60;;;18.03;;
18308;SDS011;9280;50.276;18.650;2022-07-05T13:32:26;24.10;;;17.07;;
18308;SDS011;9280;50.276;18.650;2022-07-05T13:35:12;22.83;;;17.60;;
18308;SDS011;9280;50.276;18.650;2022-07-05T13:37:58;20.80;;;17.53;;
18308;SDS011;9280;50.276;18.650;2022-07-05T13:40:44;23.97;;;17.33;;
18308;SDS011;9280;50.276;18.650;2022-07-05T13:43:30;19.83;;;14.80;;
18308;SDS011;9280;50.276;18.650;2022-07-05T13:46:18;24.70;;;13.50;;
18308;SDS011;9280;50.276;18.650;2022-07-05T13:49:04;14.63;;;11.57;;
18308;SDS011;9280;50.276;18.650;2022-07-05T13:51:50;20.67;;;13.43;;
18308;SDS011;9280;50.276;18.650;2022-07-05T13:54:36;15.90;;;13.80;;
18308;SDS011;9280;50.276;18.650;2022-07-05T13:57:23;18.70;;;13.60;;
18308;SDS011;9280;50.276;18.650;2022-07-05T14:00:09;17.60;;;13.80;;
18308;SDS011;9280;50.276;18.650;2022-07-05T14:02:57;17.30;;;12.97;;
18308;SDS011;9280;50.276;18.650;2022-07-05T14:05:43;15.70;;;13.47;;
18308;SDS011;9280;50.276;18.650;2022-07-05T14:08:29;19.70;;;13.10;;
18308;SDS011;9280;50.276;18.650;2022-07-05T14:11:15;14.80;;;12.60;;
18308;SDS011;9280;50.276;18.650;2022-07-05T14:14:01;18.90;;;13.10;;
18308;SDS011;9280;50.276;18.650;2022-07-05T14:16:47;17.03;;;14.27;;
18308;SDS011;9280;50.276;18.650;2022-07-05T14:19:35;17.33;;;13.23;;
18308;SDS011;9280;50.276;18.650;2022-07-05T14:22:21;15.40;;;13.67;;
18308;SDS011;9280;50.276;18.650;2022-07-05T14:25:08;17.17;;;12.97;;
18308;SDS011;9280;50.276;18.650;2022-07-05T14:27:54;14.17;;;12.30;;
18308;SDS011;9280;50.276;18.650;2022-07-05T14:30:41;14.67;;;11.93;;
18308;SDS011;9280;50.276;18.650;2022-07-05T14:33:28;14.67;;;11.77;;
18308;SDS011;9280;50.276;18.650;2022-07-05T14:36:16;13.47;;;10.50;;
18308;SDS011;9280;50.276;18.650;2022-07-05T14:39:03;15.10;;;12.77;;
18308;SDS011;9280;50.276;18.650;2022-07-05T14:41:50;16.17;;;11.87;;
18308;SDS011;9280;50.276;18.650;2022-07-05T14:44:36;18.27;;;13.03;;
18308;SDS011;9280;50.276;18.650;2022-07-05T14:47:22;17.43;;;14.30;;
18308;SDS011;9280;50.276;18.650;2022-07-05T14:50:10;20.67;;;15.20;;
18308;SDS011;9280;50.276;18.650;2022-07-05T14:52:57;19.73;;;13.27;;
18308;SDS011;9280;50.276;18.650;2022-07-05T14:55:49;11.93;;;9.77;;
18308;SDS011;9280;50.276;18.650;2022-07-05T14:58:35;11.53;;;10.27;;
18308;SDS011;9280;50.276;18.650;2022-07-05T15:01:21;14.07;;;10.87;;
18308;SDS011;9280;50.276;18.650;2022-07-05T15:04:07;10.23;;;8.70;;
18308;SDS011;9280;50.276;18.650;2022-07-05T15:06:53;9.10;;;7.70;;
18308;SDS011;9280;50.276;18.650;2022-07-05T15:09:41;10.30;;;7.10;;
18308;SDS011;9280;50.276;18.650;2022-07-05T15:12:27;13.37;;;8.40;;
18308;SDS011;9280;50.276;18.650;2022-07-05T15:15:13;15.07;;;9.80;;
18308;SDS011;9280;50.276;18.650;2022-07-05T15:18:00;10.03;;;9.03;;
18308;SDS011;9280;50.276;18.650;2022-07-05T15:20:46;14.20;;;11.30;;
18308;SDS011;9280;50.276;18.650;2022-07-05T15:23:32;14.80;;;12.93;;
18308;SDS011;9280;50.276;18.650;2022-07-05T15:26:19;11.37;;;10.13;;
18308;SDS011;9280;50.276;18.650;2022-07-05T15:29:06;19.70;;;13.60;;
18308;SDS011;9280;50.276;18.650;2022-07-05T15:31:52;17.93;;;12.23;;
18308;SDS011;9280;50.276;18.650;2022-07-05T15:34:38;15.37;;;11.63;;
18308;SDS011;9280;50.276;18.650;2022-07-05T15:37:24;14.00;;;10.70;;
18308;SDS011;9280;50.276;18.650;2022-07-05T15:40:11;15.30;;;11.57;;
18308;SDS011;9280;50.276;18.650;2022-07-05T15:42:59;13.20;;;11.33;;
18308;SDS011;9280;50.276;18.650;2022-07-05T15:45:46;12.03;;;10.00;;
18308;SDS011;9280;50.276;18.650;2022-07-05T15:48:32;12.37;;;9.53;;
18308;SDS011;9280;50.276;18.650;2022-07-05T15:51:18;9.73;;;8.73;;
18308;SDS011;9280;50.276;18.650;2022-07-05T15:54:04;11.27;;;8.67;;
18308;SDS011;9280;50.276;18.650;2022-07-05T15:56:51;10.30;;;8.50;;
18308;SDS011;9280;50.276;18.650;2022-07-05T15:59:38;11.40;;;8.53;;
18308;SDS011;9280;50.276;18.650;2022-07-05T16:02:24;11.33;;;8.97;;
18308;SDS011;9280;50.276;18.650;2022-07-05T16:05:11;11.47;;;6.87;;
18308;SDS011;9280;50.276;18.650;2022-07-05T16:07:57;8.00;;;6.20;;
18308;SDS011;9280;50.276;18.650;2022-07-05T16:10:43;8.13;;;6.93;;
18308;SDS011;9280;50.276;18.650;2022-07-05T16:13:29;7.87;;;6.87;;
18308;SDS011;9280;50.276;18.650;2022-07-05T16:16:16;7.13;;;6.43;;
18308;SDS011;9280;50.276;18.650;2022-07-05T16:19:03;9.60;;;7.73;;
18308;SDS011;9280;50.276;18.650;2022-07-05T16:21:50;8.33;;;7.23;;
18308;SDS011;9280;50.276;18.650;2022-07-05T16:24:36;12.40;;;8.20;;
18308;SDS011;9280;50.276;18.650;2022-07-05T16:27:22;8.93;;;7.27;;
18308;SDS011;9280;50.276;18.650;2022-07-05T16:30:08;8.53;;;7.20;;
18308;SDS011;9280;50.276;18.650;2022-07-05T16:32:56;11.40;;;7.20;;
18308;SDS011;9280;50.276;18.650;2022-07-05T16:35:42;10.93;;;5.93;;
18308;SDS011;9280;50.276;18.650;2022-07-05T16:38:28;7.20;;;6.40;;